Borne, Netherlands
Current Conditions -  °F | °C
As of 9:25 PM on Sunday 25 Jan 2015 (Local Time) from EHDL Reporting Station
Light Rain Light Rain  
Wind Chill: 31°   Ceiling: 200
Heat Index: 37°   Visibility: 1.6mi
Dew Point: 37°   Wind: 8mph
Humidity: 100%   Direction: 210°SSW
Pressure: 30.3"   Gusts: NA
Location:  52.3°N, 6.75°E
Report Text: EHDL 252025Z AUTO 21007KT 2600 -RA BKN002 OVC004 03/03 Q1026 RERA REDZ AMB
Loading
Personal Weather Stations






























Interactive Weather Map New forecast layout! Learn more

10-Day Weather Forecast

Advertisements
Track Severe Weather on mobile